createdAt,value
2019-02-06T00:01:04.287Z,39.53
2019-02-06T00:03:32.734Z,29.93
2019-02-06T00:06:01.164Z,32.97
2019-02-06T00:08:29.607Z,33.37
2019-02-06T00:10:58.049Z,37.60
2019-02-06T00:13:26.524Z,41.93
2019-02-06T00:15:55.084Z,33.20
2019-02-06T00:18:23.596Z,37.80
2019-02-06T00:20:52.078Z,32.77
2019-02-06T00:23:20.541Z,28.53
2019-02-06T00:25:48.968Z,36.50
2019-02-06T00:28:17.410Z,32.40
2019-02-06T00:30:46.389Z,37.83
2019-02-06T00:33:14.864Z,34.87
2019-02-06T00:35:43.303Z,33.33
2019-02-06T00:38:11.741Z,35.90
2019-02-06T00:40:40.197Z,31.30
2019-02-06T00:43:08.625Z,29.50
2019-02-06T00:45:37.127Z,29.37
2019-02-06T00:48:05.626Z,29.43
2019-02-06T00:50:34.130Z,30.03
2019-02-06T00:53:02.559Z,25.73
2019-02-06T00:55:30.995Z,31.83
2019-02-06T00:57:59.435Z,26.20
2019-02-06T01:00:27.947Z,26.90
2019-02-06T01:02:56.669Z,28.73
2019-02-06T01:05:36.194Z,33.17
2019-02-06T01:07:55.335Z,32.20
2019-02-06T01:10:23.866Z,29.13
2019-02-06T01:12:52.321Z,30.03
2019-02-06T01:15:20.783Z,29.80
2019-02-06T01:17:49.224Z,28.80
2019-02-06T01:20:18.384Z,27.63
2019-02-06T01:22:46.895Z,28.83
2019-02-06T01:25:18.115Z,31.67
2019-02-06T01:27:46.550Z,24.27
2019-02-06T01:30:18.899Z,23.60
2019-02-06T01:32:47.339Z,33.33
2019-02-06T01:35:16.110Z,24.10
2019-02-06T01:37:44.624Z,26.50
2019-02-06T01:40:16.158Z,24.80
2019-02-06T01:42:44.675Z,25.07
2019-02-06T01:45:17.074Z,26.97
2019-02-06T01:47:45.580Z,25.23
2019-02-06T01:50:15.919Z,31.03
2019-02-06T01:52:44.343Z,28.73
2019-02-06T01:55:15.280Z,24.17
2019-02-06T01:57:43.753Z,24.83
2019-02-06T02:00:17.879Z,28.87
2019-02-06T02:02:46.395Z,30.90
2019-02-06T02:05:17.727Z,26.13
2019-02-06T02:07:46.800Z,26.90
2019-02-06T02:10:15.570Z,27.93
2019-02-06T02:12:44.275Z,25.57
2019-02-06T02:15:15.376Z,23.83
2019-02-06T02:17:44.220Z,29.83
2019-02-06T02:20:15.856Z,27.60
2019-02-06T02:22:44.475Z,30.20
2019-02-06T02:25:13.827Z,29.43
2019-02-06T02:27:42.395Z,33.07
2019-02-06T02:30:13.936Z,30.93
2019-02-06T02:32:42.380Z,32.97
2019-02-06T02:35:10.942Z,28.77
2019-02-06T02:37:39.399Z,29.90
2019-02-06T02:40:10.380Z,29.80
2019-02-06T02:42:38.890Z,28.23
2019-02-06T02:45:11.108Z,37.47
2019-02-06T02:47:39.623Z,27.83
2019-02-06T02:50:10.180Z,31.37
2019-02-06T02:52:38.697Z,30.27
2019-02-06T02:55:09.530Z,26.37
2019-02-06T02:57:37.976Z,29.80
2019-02-06T03:00:15.529Z,35.27
2019-02-06T03:02:58.011Z,26.33
2019-02-06T03:05:28.312Z,26.07
2019-02-06T03:07:56.805Z,27.07
2019-02-06T03:10:25.301Z,30.17
2019-02-06T03:12:53.753Z,29.20
2019-02-06T03:15:22.655Z,25.87
2019-02-06T03:17:51.121Z,27.03
2019-02-06T03:20:19.575Z,32.13
2019-02-06T03:22:48.007Z,29.63
2019-02-06T03:25:16.589Z,30.33
2019-02-06T03:27:45.016Z,30.93
2019-02-06T03:30:16.294Z,30.13
2019-02-06T03:32:44.903Z,27.17
2019-02-06T03:35:13.551Z,27.93
2019-02-06T03:37:41.982Z,30.70
2019-02-06T03:40:13.511Z,28.20
2019-02-06T03:42:41.926Z,28.23
2019-02-06T03:45:12.303Z,27.77
2019-02-06T03:47:40.716Z,31.37
2019-02-06T03:50:18.225Z,36.40
2019-02-06T03:52:46.666Z,32.70
2019-02-06T03:55:15.446Z,42.93
2019-02-06T03:57:43.880Z,34.83
2019-02-06T04:00:15.132Z,49.13
2019-02-06T04:02:43.633Z,34.57
2019-02-06T04:05:12.921Z,31.83
2019-02-06T04:07:41.430Z,37.50
2019-02-06T04:10:20.316Z,32.80
2019-02-06T04:12:48.821Z,32.20
2019-02-06T04:15:17.639Z,28.20
2019-02-06T04:17:46.140Z,34.70
2019-02-06T04:20:15.938Z,30.97
2019-02-06T04:22:44.453Z,27.03
2019-02-06T04:25:14.315Z,30.20
2019-02-06T04:27:43.052Z,25.80
2019-02-06T04:30:16.965Z,24.40
2019-02-06T04:32:45.543Z,27.10
2019-02-06T04:35:15.033Z,27.17
2019-02-06T04:37:43.459Z,31.53
2019-02-06T04:40:17.082Z,24.73
2019-02-06T04:42:45.855Z,30.07
2019-02-06T04:45:17.295Z,33.17
2019-02-06T04:47:45.815Z,27.53
2019-02-06T04:50:15.406Z,30.60
2019-02-06T04:52:43.837Z,35.00
2019-02-06T04:55:14.939Z,32.37
2019-02-06T04:57:43.379Z,29.93
2019-02-06T05:00:25.829Z,29.60
2019-02-06T05:02:54.490Z,31.43
2019-02-06T05:05:23.018Z,31.97
2019-02-06T05:07:51.460Z,37.03
2019-02-06T05:10:19.876Z,33.40
2019-02-06T05:12:48.602Z,32.90
2019-02-06T05:15:18.183Z,35.53
2019-02-06T05:17:46.647Z,33.60
2019-02-06T05:20:29.851Z,38.50
2019-02-06T05:22:58.308Z,33.63
2019-02-06T05:25:27.102Z,36.17
2019-02-06T05:27:55.569Z,36.43
2019-02-06T05:30:24.074Z,36.13
2019-02-06T05:32:52.521Z,30.90
2019-02-06T05:35:20.961Z,34.27
2019-02-06T05:37:49.421Z,32.10
2019-02-06T05:40:17.914Z,32.60
2019-02-06T05:42:46.670Z,30.50
2019-02-06T05:45:15.987Z,33.63
2019-02-06T05:47:44.450Z,26.97
2019-02-06T05:50:15.224Z,34.27
2019-02-06T05:52:44.043Z,25.57
2019-02-06T05:55:14.564Z,29.13
2019-02-06T05:57:43.375Z,28.37
2019-02-06T06:00:21.876Z,29.70
2019-02-06T06:02:50.316Z,33.43
2019-02-06T06:05:18.967Z,32.83
2019-02-06T06:07:47.428Z,32.87
2019-02-06T06:10:17.692Z,33.77
2019-02-06T06:12:46.565Z,38.63
2019-02-06T06:15:17.805Z,38.93
2019-02-06T06:17:46.254Z,30.57
2019-02-06T06:20:21.255Z,30.97
2019-02-06T06:22:49.839Z,34.47
2019-02-06T06:25:20.003Z,35.77
2019-02-06T06:27:48.721Z,32.10
2019-02-06T06:30:20.838Z,40.53
2019-02-06T06:32:49.407Z,40.03
2019-02-06T06:35:18.003Z,35.83
2019-02-06T06:37:57.545Z,33.73
2019-02-06T06:40:21.411Z,34.33
2019-02-06T06:42:49.852Z,29.40
2019-02-06T06:45:21.075Z,31.80
2019-02-06T06:47:49.600Z,37.43
2019-02-06T06:50:20.631Z,32.33
2019-02-06T06:52:49.088Z,30.70
2019-02-06T06:55:17.775Z,35.43
2019-02-06T06:57:46.819Z,36.97
2019-02-06T07:00:21.127Z,33.37
2019-02-06T07:02:49.581Z,35.53
2019-02-06T07:05:18.081Z,31.83
2019-02-06T07:07:46.509Z,30.20
2019-02-06T07:10:16.516Z,27.40
2019-02-06T07:12:46.452Z,31.43
2019-02-06T07:15:23.681Z,32.67
2019-02-06T07:17:52.184Z,27.37
2019-02-06T07:20:20.693Z,32.03
2019-02-06T07:22:49.491Z,28.93
2019-02-06T07:25:19.243Z,26.70
2019-02-06T07:27:47.751Z,26.67
2019-02-06T07:30:30.677Z,24.97
2019-02-06T07:32:59.247Z,22.67
2019-02-06T07:35:27.920Z,24.30
2019-02-06T07:37:56.820Z,27.13
2019-02-06T07:40:25.610Z,32.17
2019-02-06T07:42:54.049Z,29.50
2019-02-06T07:45:22.571Z,24.73
2019-02-06T07:47:51.012Z,23.30
2019-02-06T07:50:22.390Z,26.17
2019-02-06T07:52:50.824Z,25.87
2019-02-06T07:55:19.342Z,26.67
2019-02-06T07:57:47.835Z,22.80
2019-02-06T08:00:16.292Z,25.83
2019-02-06T08:02:45.462Z,22.87
2019-02-06T08:05:16.576Z,24.07
2019-02-06T08:07:45.483Z,27.67
2019-02-06T08:10:17.265Z,25.30
2019-02-06T08:12:45.784Z,18.97
2019-02-06T08:15:16.677Z,27.20
2019-02-06T08:17:45.173Z,29.97
2019-02-06T08:20:16.248Z,25.57
2019-02-06T08:22:44.686Z,21.77
2019-02-06T08:25:15.865Z,24.77
2019-02-06T08:27:44.271Z,28.13
2019-02-06T08:30:18.834Z,30.10
2019-02-06T08:32:47.289Z,24.33
2019-02-06T08:35:15.937Z,27.90
2019-02-06T08:37:44.518Z,28.70
2019-02-06T08:40:16.154Z,36.90
2019-02-06T08:42:44.588Z,31.93
2019-02-06T08:45:17.035Z,34.90
2019-02-06T08:47:45.807Z,31.23
2019-02-06T08:50:19.353Z,28.13
2019-02-06T08:52:48.240Z,33.57
2019-02-06T08:55:19.619Z,32.80
2019-02-06T08:57:48.067Z,33.83
2019-02-06T09:00:25.352Z,36.43
2019-02-06T09:02:53.934Z,32.13
2019-02-06T09:05:22.398Z,39.00
2019-02-06T09:07:50.904Z,29.43
2019-02-06T09:10:22.354Z,32.07
2019-02-06T09:12:51.318Z,28.20
2019-02-06T09:15:20.019Z,30.17
2019-02-06T09:17:48.515Z,27.73
2019-02-06T09:20:19.097Z,27.90
2019-02-06T09:22:47.547Z,27.97
2019-02-06T09:25:21.343Z,27.43
2019-02-06T09:27:49.916Z,29.03
2019-02-06T09:30:29.232Z,26.47
2019-02-06T09:32:57.886Z,31.13
2019-02-06T09:35:26.656Z,25.27
2019-02-06T09:37:55.093Z,29.63
2019-02-06T09:40:28.157Z,27.63
2019-02-06T09:42:56.593Z,28.57
2019-02-06T09:45:25.191Z,27.07
2019-02-06T09:47:53.623Z,23.83
2019-02-06T09:50:24.968Z,26.50
2019-02-06T09:52:53.794Z,23.57
2019-02-06T09:55:22.235Z,20.97
2019-02-06T09:57:50.671Z,24.10
2019-02-06T10:00:25.049Z,23.17
2019-02-06T10:02:53.492Z,22.40
2019-02-06T10:05:22.262Z,27.60
2019-02-06T10:07:50.673Z,29.13
2019-02-06T10:10:21.031Z,23.57
2019-02-06T10:12:49.449Z,23.40
2019-02-06T10:15:20.966Z,23.97
2019-02-06T10:17:49.450Z,21.13
2019-02-06T10:20:20.796Z,24.57
2019-02-06T10:22:49.206Z,23.27
2019-02-06T10:25:17.632Z,22.57
2019-02-06T10:27:46.131Z,23.30
2019-02-06T10:30:23.618Z,18.40
2019-02-06T10:32:52.019Z,23.37
2019-02-06T10:35:20.718Z,19.63
2019-02-06T10:37:49.142Z,18.27
2019-02-06T10:40:18.307Z,20.17
2019-02-06T10:42:46.775Z,19.57
2019-02-06T10:45:20.735Z,20.07
2019-02-06T10:47:47.929Z,20.30
2019-02-06T10:50:24.416Z,19.13
2019-02-06T10:52:52.918Z,20.87
2019-02-06T10:55:21.452Z,18.17
2019-02-06T10:57:49.884Z,18.80
2019-02-06T11:00:35.731Z,19.77
2019-02-06T11:03:04.323Z,21.20
2019-02-06T11:05:32.721Z,20.70
2019-02-06T11:08:01.149Z,20.10
2019-02-06T11:10:29.940Z,19.23
2019-02-06T11:12:58.531Z,19.70
2019-02-06T11:15:27.275Z,21.43
2019-02-06T11:17:55.986Z,23.77
2019-02-06T11:20:29.353Z,24.33
2019-02-06T11:22:57.859Z,21.53
2019-02-06T11:25:26.344Z,21.90
2019-02-06T11:27:54.759Z,20.47
2019-02-06T11:30:31.907Z,20.37
2019-02-06T11:33:00.477Z,23.70
2019-02-06T11:35:28.950Z,20.50
2019-02-06T11:37:57.473Z,22.67
2019-02-06T11:40:26.036Z,20.63
2019-02-06T11:42:54.742Z,20.10
2019-02-06T11:45:30.987Z,19.03
2019-02-06T11:47:59.482Z,20.10
2019-02-06T11:50:35.365Z,19.47
2019-02-06T11:53:04.423Z,22.13
2019-02-06T11:55:32.914Z,25.73
2019-02-06T11:58:01.329Z,23.87
2019-02-06T12:00:34.418Z,19.23
2019-02-06T12:03:02.856Z,19.50
2019-02-06T12:05:31.288Z,18.13
2019-02-06T12:07:59.706Z,20.83
2019-02-06T12:10:28.150Z,20.43
2019-02-06T12:12:56.570Z,18.53
2019-02-06T12:15:25.324Z,18.23
2019-02-06T12:17:53.838Z,19.53
2019-02-06T12:20:23.496Z,19.93
2019-02-06T12:22:51.909Z,19.27
2019-02-06T12:25:20.471Z,18.60
2019-02-06T12:27:51.094Z,17.57
2019-02-06T12:30:30.708Z,16.47
2019-02-06T12:32:59.198Z,19.13
2019-02-06T12:35:27.789Z,21.40
2019-02-06T12:37:56.300Z,17.97
2019-02-06T12:40:24.902Z,20.17
2019-02-06T12:42:53.427Z,17.17
2019-02-06T12:45:22.992Z,19.17
2019-02-06T12:47:51.822Z,18.87
2019-02-06T12:50:22.593Z,19.13
2019-02-06T12:52:51.040Z,19.80
2019-02-06T12:55:25.358Z,19.20
2019-02-06T12:57:53.778Z,18.80
2019-02-06T13:00:27.316Z,17.60
2019-02-06T13:02:59.665Z,20.67
2019-02-06T13:05:26.402Z,18.83
2019-02-06T13:07:54.876Z,18.13
2019-02-06T13:10:33.263Z,19.80
2019-02-06T13:12:54.355Z,19.07
2019-02-06T13:15:22.783Z,17.67
2019-02-06T13:17:51.598Z,17.17
2019-02-06T13:20:22.639Z,19.00
2019-02-06T13:22:51.078Z,15.13
2019-02-06T13:25:19.589Z,14.83
2019-02-06T13:27:48.105Z,16.10
2019-02-06T13:30:24.638Z,17.67
2019-02-06T13:32:53.227Z,18.87
2019-02-06T13:35:21.653Z,17.97
2019-02-06T13:37:50.130Z,15.63
2019-02-06T13:40:24.541Z,15.77
2019-02-06T13:42:52.987Z,16.27
2019-02-06T13:45:29.798Z,16.00
2019-02-06T13:47:59.196Z,16.77
2019-02-06T13:50:28.755Z,15.40
2019-02-06T13:52:57.267Z,15.20
2019-02-06T13:55:26.059Z,17.07
2019-02-06T13:57:54.497Z,16.40
2019-02-06T14:00:25.431Z,13.57
2019-02-06T14:02:54.081Z,14.07
2019-02-06T14:05:25.266Z,17.23
2019-02-06T14:07:55.582Z,18.17
2019-02-06T14:10:26.240Z,15.87
2019-02-06T14:12:54.896Z,12.93
2019-02-06T14:15:26.156Z,14.67
2019-02-06T14:17:54.607Z,13.60
2019-02-06T14:20:23.213Z,13.10
2019-02-06T14:22:59.802Z,13.23
2019-02-06T14:25:53.533Z,13.47
2019-02-06T14:28:44.803Z,10.67
2019-02-06T14:31:21.645Z,12.90
2019-02-06T14:34:10.826Z,12.30
2019-02-06T14:37:03.309Z,12.63
2019-02-06T14:39:40.650Z,10.70
2019-02-06T14:42:28.287Z,9.10
2019-02-06T14:44:59.784Z,9.13
2019-02-06T14:47:40.202Z,9.93
2019-02-06T14:50:20.612Z,10.97
2019-02-06T14:53:00.815Z,9.07
2019-02-06T14:55:41.481Z,9.70
2019-02-06T14:58:35.099Z,9.97
2019-02-06T15:01:09.484Z,9.43
2019-02-06T15:04:09.316Z,10.17
2019-02-06T15:06:55.672Z,10.90
2019-02-06T15:09:43.252Z,11.37
2019-02-06T15:12:23.247Z,10.80
2019-02-06T15:14:57.245Z,9.70
2019-02-06T15:17:31.209Z,10.50
2019-02-06T15:20:23.538Z,13.30
2019-02-06T15:23:03.767Z,10.73
2019-02-06T15:25:47.060Z,10.20
2019-02-06T15:28:34.874Z,11.97
2019-02-06T15:31:22.797Z,11.63
2019-02-06T15:34:19.485Z,10.87
2019-02-06T15:36:59.704Z,10.13
2019-02-06T15:39:31.211Z,10.13
2019-02-06T15:42:14.642Z,11.57
2019-02-06T15:44:48.947Z,10.57
2019-02-06T15:47:44.449Z,12.27
2019-02-06T15:50:26.684Z,10.20
2019-02-06T15:53:18.939Z,10.70
2019-02-06T15:56:12.540Z,9.87
2019-02-06T15:58:52.632Z,9.87
2019-02-06T16:01:26.818Z,10.60
2019-02-06T16:04:10.924Z,13.07
2019-02-06T16:07:00.222Z,11.63
2019-02-06T16:09:37.267Z,10.33
2019-02-06T16:12:11.160Z,11.00
2019-02-06T16:14:57.252Z,12.60
2019-02-06T16:17:54.205Z,12.87
2019-02-06T16:20:40.568Z,13.70
2019-02-06T16:23:20.412Z,15.13
2019-02-06T16:25:54.937Z,13.20
2019-02-06T16:28:38.151Z,14.10
2019-02-06T16:31:15.619Z,16.17
2019-02-06T16:34:13.813Z,12.90
2019-02-06T16:36:48.149Z,12.23
2019-02-06T16:39:31.463Z,11.47
2019-02-06T16:42:08.899Z,11.37
2019-02-06T16:44:56.595Z,12.73
2019-02-06T16:47:45.622Z,12.10
2019-02-06T16:50:21.864Z,15.77
2019-02-06T16:53:01.968Z,14.50
2019-02-06T16:55:42.326Z,13.30
2019-02-06T16:58:34.948Z,12.70
2019-02-06T17:01:17.294Z,19.70
2019-02-06T17:04:15.774Z,49.20
2019-02-06T17:07:05.247Z,39.80
2019-02-06T17:09:51.458Z,29.63
2019-02-06T17:12:31.731Z,17.23
2019-02-06T17:15:09.057Z,15.93
2019-02-06T17:17:49.726Z,20.43
2019-02-06T17:20:48.132Z,19.60
2019-02-06T17:23:28.300Z,20.53
2019-02-06T17:26:08.668Z,21.17
2019-02-06T17:28:58.003Z,22.50
2019-02-06T17:31:29.691Z,31.37
2019-02-06T17:34:25.236Z,38.53
2019-02-06T17:37:19.005Z,25.00
2019-02-06T17:39:53.265Z,15.03
2019-02-06T17:42:24.779Z,26.87
2019-02-06T17:45:12.821Z,24.07
2019-02-06T17:47:50.012Z,19.13
2019-02-06T17:50:27.407Z,16.53
2019-02-06T17:53:07.512Z,17.80
2019-02-06T17:55:36.005Z,15.10
2019-02-06T17:58:05.964Z,15.93
2019-02-06T18:00:52.119Z,15.60
2019-02-06T18:03:20.538Z,16.17
2019-02-06T18:05:49.583Z,15.73
2019-02-06T18:08:17.992Z,18.30
2019-02-06T18:10:46.459Z,17.63
2019-02-06T18:13:15.377Z,24.77
2019-02-06T18:15:43.818Z,22.33
2019-02-06T18:18:12.253Z,24.67
2019-02-06T18:20:41.304Z,16.67
2019-02-06T18:23:09.726Z,22.80
2019-02-06T18:25:38.167Z,18.77
2019-02-06T18:28:06.676Z,19.03
2019-02-06T18:30:35.607Z,23.33
2019-02-06T18:33:04.594Z,17.80
2019-02-06T18:35:33.094Z,18.40
2019-02-06T18:38:01.613Z,18.30
2019-02-06T18:40:30.216Z,21.67
2019-02-06T18:42:58.778Z,22.87
2019-02-06T18:45:27.980Z,22.87
2019-02-06T18:47:59.188Z,19.73
2019-02-06T18:50:33.480Z,21.83
2019-02-06T18:53:02.388Z,21.87
2019-02-06T18:55:30.840Z,26.87
2019-02-06T18:57:59.558Z,25.37
2019-02-06T19:00:32.300Z,19.93
2019-02-06T19:03:03.341Z,20.30
2019-02-06T19:05:37.292Z,23.07
2019-02-06T19:08:06.883Z,24.47
2019-02-06T19:10:35.627Z,24.57
2019-02-06T19:13:04.908Z,27.67
2019-02-06T19:15:33.771Z,24.93
2019-02-06T19:18:02.579Z,21.50
2019-02-06T19:20:31.083Z,27.57
2019-02-06T19:22:59.515Z,38.47
2019-02-06T19:25:27.947Z,23.80
2019-02-06T19:27:56.511Z,27.93
2019-02-06T19:30:33.918Z,25.30
2019-02-06T19:33:02.540Z,25.50
2019-02-06T19:35:31.039Z,27.33
2019-02-06T19:37:59.560Z,26.67
2019-02-06T19:40:28.060Z,26.40
2019-02-06T19:43:00.502Z,35.43
2019-02-06T19:45:26.738Z,34.00
2019-02-06T19:47:55.549Z,31.20
2019-02-06T19:50:29.666Z,35.27
2019-02-06T19:52:58.190Z,28.30
2019-02-06T19:55:26.774Z,30.10
2019-02-06T19:57:55.204Z,42.97
2019-02-06T20:00:31.549Z,40.03
2019-02-06T20:03:00.057Z,39.67
2019-02-06T20:05:28.826Z,35.60
2019-02-06T20:07:57.323Z,34.93
2019-02-06T20:10:37.695Z,32.23
2019-02-06T20:13:11.385Z,35.57
2019-02-06T20:15:36.592Z,37.77
2019-02-06T20:18:05.651Z,33.03
2019-02-06T20:20:34.467Z,34.70
2019-02-06T20:23:02.923Z,34.60
2019-02-06T20:25:31.444Z,34.83
2019-02-06T20:27:59.891Z,32.90
2019-02-06T20:30:29.958Z,33.77
2019-02-06T20:32:58.449Z,28.80
2019-02-06T20:35:27.018Z,30.00
2019-02-06T20:37:55.933Z,31.67
2019-02-06T20:40:39.181Z,32.17
2019-02-06T20:43:07.675Z,25.30
2019-02-06T20:45:36.106Z,27.80
2019-02-06T20:48:04.769Z,29.87
2019-02-06T20:50:37.138Z,33.23
2019-02-06T20:53:05.931Z,29.57
2019-02-06T20:55:34.450Z,35.50
2019-02-06T20:58:02.895Z,35.70
2019-02-06T21:00:33.794Z,33.50
2019-02-06T21:03:02.318Z,32.87
2019-02-06T21:05:30.819Z,29.47
2019-02-06T21:07:59.621Z,43.57
2019-02-06T21:10:30.472Z,39.20
2019-02-06T21:12:59.147Z,32.03
2019-02-06T21:15:27.737Z,34.40
2019-02-06T21:17:56.239Z,33.60
2019-02-06T21:20:25.302Z,32.73
2019-02-06T21:22:53.832Z,32.90
2019-02-06T21:25:26.597Z,30.97
2019-02-06T21:27:55.146Z,30.40
2019-02-06T21:30:28.787Z,32.77
2019-02-06T21:32:57.216Z,43.13
2019-02-06T21:35:25.718Z,40.70
2019-02-06T21:37:54.220Z,36.27
2019-02-06T21:40:25.168Z,32.77
2019-02-06T21:42:53.799Z,33.93
2019-02-06T21:45:22.360Z,38.83
2019-02-06T21:47:50.858Z,40.80
2019-02-06T21:50:21.226Z,42.27
2019-02-06T21:52:49.732Z,39.27
2019-02-06T21:55:22.292Z,39.60
2019-02-06T21:57:50.891Z,37.03
2019-02-06T22:00:42.000Z,34.23
2019-02-06T22:03:10.977Z,36.87
2019-02-06T22:05:39.488Z,39.77
2019-02-06T22:08:07.998Z,37.33
2019-02-06T22:10:36.421Z,29.60
2019-02-06T22:13:05.491Z,36.93
2019-02-06T22:15:34.056Z,39.77
2019-02-06T22:18:03.093Z,36.03
2019-02-06T22:20:31.691Z,39.90
2019-02-06T22:23:00.201Z,45.43
2019-02-06T22:25:28.831Z,35.13
2019-02-06T22:27:57.337Z,42.47
2019-02-06T22:30:30.772Z,71.30
2019-02-06T22:33:00.171Z,43.47
2019-02-06T22:35:28.703Z,40.60
2019-02-06T22:37:57.418Z,43.87
2019-02-06T22:40:27.391Z,50.27
2019-02-06T22:42:56.078Z,51.90
2019-02-06T22:45:28.897Z,47.93
2019-02-06T22:47:57.344Z,48.67
2019-02-06T22:50:27.819Z,41.73
2019-02-06T22:52:56.379Z,44.23
2019-02-06T22:55:25.159Z,44.93
2019-02-06T22:57:53.747Z,35.33
2019-02-06T23:00:49.294Z,39.67
2019-02-06T23:03:29.767Z,40.40
2019-02-06T23:05:58.291Z,35.10
2019-02-06T23:08:26.919Z,38.93
2019-02-06T23:10:55.628Z,38.53
2019-02-06T23:13:24.035Z,42.43
2019-02-06T23:15:52.459Z,42.43
2019-02-06T23:18:21.023Z,43.97
2019-02-06T23:20:49.540Z,34.47
2019-02-06T23:23:17.978Z,41.47
2019-02-06T23:25:46.404Z,47.57
2019-02-06T23:28:15.003Z,43.17
2019-02-06T23:30:43.460Z,40.87
2019-02-06T23:33:12.015Z,42.30
2019-02-06T23:35:40.517Z,44.20
2019-02-06T23:38:09.127Z,45.73
2019-02-06T23:40:37.624Z,42.33
2019-02-06T23:43:06.537Z,43.20
2019-02-06T23:45:35.032Z,41.67
2019-02-06T23:48:03.477Z,37.80
2019-02-06T23:50:31.923Z,42.43
2019-02-06T23:53:00.772Z,35.57
2019-02-06T23:55:29.196Z,38.57
2019-02-06T23:57:57.648Z,41.70
